Time;durP1;ratioP1;P1;durP2;ratioP2;P2;SDS_P1;SDS_P2;PMS_P1;PMS_P2;Temp;Humidity;BMP_temperature;BMP_pressure;BME280_temperature;BME280_humidity;BME280_pressure;Samples;Min_cycle;Max_cycle;Signal;HPM_P1;HPM_P2
2024/03/08 00:02:16;;;;;;;33.00;17.45;;;;;;;2.34;84.17;101479.59;5016890;28;20672;-70
2024/03/08 00:04:42;;;;;;;38.30;18.63;;;;;;;2.32;84.14;101478.88;5003873;28;21720;-70
2024/03/08 00:07:07;;;;;;;30.55;16.25;;;;;;;2.26;84.43;101481.75;5019723;28;20032;-70
2024/03/08 00:09:33;;;;;;;32.45;17.90;;;;;;;2.31;83.88;101474.66;5016900;28;20100;-70
2024/03/08 00:11:58;;;;;;;34.10;18.52;;;;;;;2.24;84.13;101474.19;5018307;28;20053;-70
2024/03/08 00:14:24;;;;;;;35.47;17.60;;;;;;;2.27;84.37;101479.09;5019181;28;20518;-70
2024/03/08 00:16:50;;;;;;;35.70;17.80;;;;;;;2.24;84.66;101471.63;5018422;28;20195;-70
2024/03/08 00:19:15;;;;;;;32.80;17.95;;;;;;;2.18;85.36;101468.56;5014322;28;20038;-70
2024/03/08 00:21:42;;;;;;;31.80;17.45;;;;;;;2.17;85.49;101466.91;5020367;28;20029;-70
2024/03/08 00:24:07;;;;;;;35.97;18.33;;;;;;;2.13;85.78;101461.97;5004050;28;20049;-70
2024/03/08 00:26:33;;;;;;;39.85;18.40;;;;;;;2.10;86.07;101458.75;5021558;28;20029;-70
2024/03/08 00:28:58;;;;;;;35.75;18.00;;;;;;;2.12;85.02;101462.06;5022382;28;20041;-70
2024/03/08 00:31:24;;;;;;;36.35;17.70;;;;;;;2.09;85.42;101462.22;5022874;28;20049;-70
2024/03/08 00:33:50;;;;;;;30.58;17.45;;;;;;;2.04;85.92;101454.81;5023302;28;20392;-70
2024/03/08 00:36:16;;;;;;;39.28;18.70;;;;;;;2.01;85.79;101449.84;5025324;28;20030;-70
2024/03/08 00:38:42;;;;;;;34.33;17.75;;;;;;;1.98;86.18;101454.28;5023636;28;20488;-69
2024/03/08 00:41:07;;;;;;;32.65;17.02;;;;;;;1.95;86.33;101453.56;5019955;28;20037;-69
2024/03/08 00:43:33;;;;;;;38.45;19.83;;;;;;;2.03;85.80;101445.47;5022905;28;20115;-70
2024/03/08 00:45:58;;;;;;;37.80;18.60;;;;;;;2.09;84.79;101436.63;5020324;28;20033;-70
2024/03/08 00:48:24;;;;;;;39.13;18.33;;;;;;;2.09;84.29;101442.59;5024539;28;20041;-69
2024/03/08 00:50:49;;;;;;;34.50;18.30;;;;;;;2.00;84.60;101439.69;5007399;28;20061;-70
2024/03/08 00:53:15;;;;;;;31.83;17.73;;;;;;;2.02;84.81;101436.16;5022688;28;20132;-70
2024/03/08 00:55:40;;;;;;;37.15;18.52;;;;;;;2.05;83.42;101437.72;5024218;28;20492;-70
2024/03/08 00:58:06;;;;;;;34.88;18.00;;;;;;;1.99;84.13;101435.50;5024108;28;20733;-70
2024/03/08 01:00:31;;;;;;;36.40;19.13;;;;;;;1.94;84.91;101433.19;5019952;28;20499;-70
2024/03/08 01:02:56;;;;;;;38.88;19.02;;;;;;;1.90;85.04;101426.59;5025473;28;20025;-70
2024/03/08 01:05:24;;;;;;;37.10;18.27;;;;;;;1.88;84.72;101431.78;5022109;28;20044;-69
2024/03/08 01:07:50;;;;;;;37.00;18.70;;;;;;;1.88;85.05;101424.09;5024330;28;20484;-69
2024/03/08 01:10:16;;;;;;;37.55;19.13;;;;;;;1.86;84.53;101425.09;5023409;28;20032;-70
2024/03/08 01:12:42;;;;;;;46.25;20.10;;;;;;;1.81;85.37;101419.41;5022893;28;20551;-69
2024/03/08 01:15:10;;;;;;;38.22;18.77;;;;;;;1.78;85.91;101411.94;5019693;28;20029;-69
2024/03/08 01:17:36;;;;;;;37.83;19.63;;;;;;;1.74;85.85;101406.16;5022632;28;20116;-70
2024/03/08 01:20:02;;;;;;;41.22;19.85;;;;;;;1.73;85.48;101407.91;5007487;28;20561;-69
2024/03/08 01:22:29;;;;;;;37.67;19.98;;;;;;;1.94;83.85;101398.22;5029359;28;20044;-69
2024/03/08 01:24:55;;;;;;;41.17;19.27;;;;;;;1.90;83.48;101395.88;5025681;28;20117;-69
2024/03/08 01:27:21;;;;;;;36.45;18.02;;;;;;;1.85;83.92;101403.84;5028400;28;20033;-69
2024/03/08 01:29:46;;;;;;;34.92;18.63;;;;;;;1.79;84.40;101398.22;5023462;28;20048;-70
2024/03/08 01:32:12;;;;;;;35.40;19.35;;;;;;;1.70;85.22;101394.44;5028433;28;20037;-69
2024/03/08 01:34:37;;;;;;;36.85;18.90;;;;;;;1.86;83.50;101389.31;5025800;28;20050;-69
2024/03/08 01:37:03;;;;;;;36.50;18.67;;;;;;;1.87;83.63;101391.78;5025351;28;20044;-69
2024/03/08 01:39:28;;;;;;;40.60;18.90;;;;;;;1.80;83.80;101385.34;5024900;28;21117;-69
2024/03/08 01:41:54;;;;;;;40.67;19.83;;;;;;;1.80;83.58;101387.09;5026157;28;20060;-69
2024/03/08 01:44:20;;;;;;;43.60;19.17;;;;;;;1.77;83.95;101384.69;5007364;28;20100;-69
2024/03/08 01:46:47;;;;;;;41.35;19.38;;;;;;;1.82;83.14;101386.09;5021711;28;20030;-69
2024/03/08 01:49:13;;;;;;;40.15;20.27;;;;;;;1.82;83.33;101385.28;5005926;28;20032;-69
2024/03/08 01:51:41;;;;;;;43.28;20.75;;;;;;;1.82;83.63;101372.47;5026598;28;20090;-69
2024/03/08 01:54:09;;;;;;;40.63;20.20;;;;;;;1.85;83.07;101377.44;5025924;28;20112;-69
2024/03/08 01:56:36;;;;;;;37.38;18.92;;;;;;;1.81;83.58;101374.22;5027953;28;20471;-69
2024/03/08 01:59:01;;;;;;;40.63;19.27;;;;;;;1.77;83.80;101367.59;5025391;28;20040;-69
2024/03/08 02:01:28;;;;;;;45.42;19.95;;;;;;;1.73;83.71;101361.03;5033227;28;20030;-69
2024/03/08 02:03:53;;;;;;;37.20;19.88;;;;;;;1.71;83.96;101366.25;5035706;28;20030;-70
2024/03/08 02:06:19;;;;;;;41.40;19.20;;;;;;;1.66;84.52;101362.28;5032304;28;20041;-69
2024/03/08 02:08:46;;;;;;;39.35;19.20;;;;;;;1.61;84.83;101361.72;5029333;28;20407;-69
2024/03/08 02:11:12;;;;;;;36.20;19.23;;;;;;;1.58;85.00;101357.56;5025963;28;20033;-69
2024/03/08 02:13:37;;;;;;;40.40;20.30;;;;;;;1.55;85.76;101357.75;5024674;28;20030;-69
2024/03/08 02:16:04;;;;;;;39.10;20.75;;;;;;;1.48;86.07;101361.56;5026909;28;20067;-69
2024/03/08 02:18:30;;;;;;;37.63;17.98;;;;;;;1.43;86.47;101355.84;5024422;28;20051;-69
2024/03/08 02:20:57;;;;;;;38.28;20.08;;;;;;;1.40;87.11;101350.94;5008186;28;20527;-69
2024/03/08 02:23:24;;;;;;;41.78;21.00;;;;;;;1.45;86.87;101349.78;5022668;28;20176;-69
2024/03/08 02:25:51;;;;;;;39.42;20.35;;;;;;;1.40;86.70;101350.94;5018889;28;20044;-68
2024/03/08 02:28:18;;;;;;;45.47;20.30;;;;;;;1.41;86.55;101347.44;5020158;28;20124;-68
2024/03/08 02:30:46;;;;;;;45.45;20.50;;;;;;;1.34;87.13;101354.63;5024695;28;20044;-68
2024/03/08 02:33:16;;;;;;;39.15;19.85;;;;;;;1.29;87.82;101344.66;5023354;28;20087;-69
2024/03/08 02:35:45;;;;;;;44.65;20.73;;;;;;;1.28;87.68;101344.72;5026148;28;20504;-68
2024/03/08 02:38:12;;;;;;;43.35;21.80;;;;;;;1.27;87.80;101343.09;5025757;28;20424;-69
2024/03/08 02:40:37;;;;;;;48.03;21.77;;;;;;;1.26;88.11;101339.72;5019160;28;20459;-68
2024/03/08 02:43:04;;;;;;;44.25;22.33;;;;;;;1.28;87.69;101335.34;5023445;28;20277;-68
2024/03/08 02:45:30;;;;;;;42.67;21.00;;;;;;;1.21;88.34;101334.03;5026277;28;20029;-68
2024/03/08 02:47:56;;;;;;;45.38;21.83;;;;;;;1.16;88.71;101324.03;5026254;28;20040;-69
2024/03/08 02:50:22;;;;;;;43.20;20.88;;;;;;;1.16;89.03;101328.34;5025333;28;20492;-68
2024/03/08 02:52:48;;;;;;;44.75;21.40;;;;;;;1.11;89.15;101325.19;5021133;28;20116;-69
2024/03/08 02:55:16;;;;;;;43.28;21.80;;;;;;;1.09;89.43;101320.19;5021113;28;20041;-69
2024/03/08 02:57:43;;;;;;;47.78;21.63;;;;;;;1.06;89.86;101320.34;5022639;28;20037;-69
2024/03/08 03:00:10;;;;;;;45.45;21.20;;;;;;;1.03;90.47;101327.34;5022414;28;20496;-69
2024/03/08 03:02:35;;;;;;;48.40;22.65;;;;;;;1.09;89.97;101324.44;5023102;28;20136;-69
2024/03/08 03:05:07;;;;;;;44.70;22.50;;;;;;;1.02;90.22;101323.97;5021408;28;20159;-69
2024/03/08 03:07:35;;;;;;;42.95;21.23;;;;;;;0.96;90.85;101316.59;5017155;28;20062;-69
2024/03/08 03:10:01;;;;;;;44.25;21.30;;;;;;;0.91;91.43;101321.97;5022078;28;20123;-69
2024/03/08 03:12:30;;;;;;;47.50;23.48;;;;;;;0.89;91.96;101315.31;5025535;28;20025;-69
2024/03/08 03:14:57;;;;;;;49.45;22.25;;;;;;;0.88;91.99;101314.47;5007210;28;20110;-69
2024/03/08 03:17:24;;;;;;;43.42;21.38;;;;;;;0.85;91.72;101311.25;5022159;28;20116;-69
2024/03/08 03:19:51;;;;;;;47.88;21.00;;;;;;;0.85;92.05;101308.69;5023528;28;20048;-69
2024/03/08 03:22:18;;;;;;;44.60;21.17;;;;;;;0.84;91.78;101301.94;5023578;28;20039;-69
2024/03/08 03:24:44;;;;;;;47.45;21.95;;;;;;;0.79;92.24;101304.72;5024529;28;20036;-69
2024/03/08 03:27:12;;;;;;;43.67;21.05;;;;;;;0.77;92.58;101301.44;5026506;28;20102;-69
2024/03/08 03:29:45;;;;;;;40.67;21.52;;;;;;;0.73;92.97;101302.50;5008020;28;20387;-70
2024/03/08 03:32:11;;;;;;;43.90;21.50;;;;;;;0.70;93.43;101302.69;5023066;28;20143;-69
2024/03/08 03:34:37;;;;;;;40.53;20.15;;;;;;;0.66;94.12;101304.56;5021402;28;20076;-69
2024/03/08 03:37:04;;;;;;;44.35;21.23;;;;;;;0.62;94.09;101302.25;5022384;28;20273;-69
2024/03/08 03:39:34;;;;;;;40.90;19.95;;;;;;;0.57;94.48;101298.19;5023930;28;20079;-69
2024/03/08 03:42:02;;;;;;;42.90;21.38;;;;;;;0.55;94.78;101302.56;5023961;28;20091;-69
2024/03/08 03:44:28;;;;;;;40.53;20.80;;;;;;;0.51;95.40;101290.00;5022140;28;20117;-69
2024/03/08 03:46:54;;;;;;;43.90;20.95;;;;;;;0.46;95.62;101292.00;5021587;28;20033;-69
2024/03/08 03:49:20;;;;;;;43.65;21.55;;;;;;;0.43;95.86;101289.59;5021185;28;20534;-69
2024/03/08 03:51:46;;;;;;;42.45;19.90;;;;;;;0.41;96.20;101299.06;5026129;28;20037;-70
2024/03/08 03:54:12;;;;;;;44.25;20.33;;;;;;;0.38;96.36;101285.56;5024042;28;20029;-69
2024/03/08 03:56:39;;;;;;;41.58;21.52;;;;;;;0.36;96.34;101286.56;5003015;28;20038;-69
2024/03/08 03:59:06;;;;;;;43.03;20.52;;;;;;;0.30;96.84;101290.25;5017790;28;20040;-69
2024/03/08 04:01:32;;;;;;;47.97;21.83;;;;;;;0.27;97.16;101287.81;5023370;28;20112;-69
2024/03/08 04:03:57;;;;;;;45.50;21.10;;;;;;;0.21;97.33;101288.16;5007320;28;20045;-69
2024/03/08 04:06:24;;;;;;;44.75;19.98;;;;;;;0.14;97.63;101284.25;5024712;28;20115;-69
2024/03/08 04:08:49;;;;;;;42.50;19.90;;;;;;;0.08;98.09;101279.47;5025015;28;20025;-71
2024/03/08 04:11:16;;;;;;;45.72;21.85;;;;;;;0.04;98.18;101276.25;5022561;28;20041;-68
2024/03/08 04:13:43;;;;;;;44.50;20.25;;;;;;;0.00;98.69;101277.28;5022294;28;20037;-69
2024/03/08 04:16:08;;;;;;;44.92;20.13;;;;;;;-0.03;99.06;101280.81;5022295;28;20045;-68
2024/03/08 04:18:37;;;;;;;46.58;20.75;;;;;;;-0.07;98.79;101279.31;5019410;28;20033;-68
2024/03/08 04:21:06;;;;;;;43.08;20.00;;;;;;;-0.10;99.48;101276.09;5022603;28;20041;-68
2024/03/08 04:23:35;;;;;;;42.83;20.20;;;;;;;-0.13;99.97;101271.97;5022698;28;20423;-68
2024/03/08 04:26:02;;;;;;;43.42;20.92;;;;;;;-0.15;99.98;101272.91;5007294;28;20424;-68
2024/03/08 04:28:27;;;;;;;42.83;19.77;;;;;;;-0.20;100.00;101268.06;5024817;28;20428;-68
2024/03/08 04:30:52;;;;;;;45.00;20.52;;;;;;;-0.21;100.00;101276.59;5020614;28;20034;-68
2024/03/08 04:33:18;;;;;;;46.65;21.45;;;;;;;-0.23;100.00;101274.16;5021201;28;20391;-68
2024/03/08 04:35:45;;;;;;;49.15;22.02;;;;;;;-0.23;100.00;101271.59;5023624;28;20044;-68
2024/03/08 04:38:11;;;;;;;43.67;21.15;;;;;;;-0.27;100.00;101264.97;5023028;28;20032;-68
2024/03/08 04:40:36;;;;;;;45.63;22.02;;;;;;;-0.32;100.00;101258.44;5023778;28;20041;-67
2024/03/08 04:43:02;;;;;;;45.55;20.77;;;;;;;-0.38;100.00;101254.47;5008693;28;20041;-68
2024/03/08 04:45:28;;;;;;;47.13;22.52;;;;;;;-0.43;100.00;101254.72;5025378;28;20045;-68
2024/03/08 04:47:53;;;;;;;44.22;22.27;;;;;;;-0.44;100.00;101259.88;5025375;28;20034;-67
2024/03/08 04:50:19;;;;;;;49.00;22.65;;;;;;;-0.47;100.00;101257.47;5007233;28;20037;-68
2024/03/08 04:52:44;;;;;;;48.85;21.75;;;;;;;-0.49;100.00;101251.63;5026883;28;20037;-68
2024/03/08 04:55:09;;;;;;;52.78;22.20;;;;;;;-0.50;100.00;101255.09;5022848;28;20048;-67
2024/03/08 04:57:35;;;;;;;48.53;23.10;;;;;;;-0.49;100.00;101251.63;5023949;28;20446;-68
2024/03/08 05:00:11;;;;;;;49.00;24.23;;;;;;;-0.50;100.00;101255.09;5018572;28;20069;-68
2024/03/08 05:02:41;;;;;;;50.47;22.85;;;;;;;-0.50;100.00;101238.06;5028623;28;20484;-68
2024/03/08 05:05:07;;;;;;;50.38;22.08;;;;;;;-0.51;100.00;101240.69;5023240;28;20372;-68
2024/03/08 05:07:35;;;;;;;54.55;23.35;;;;;;;-0.50;100.00;101237.25;5024521;28;20052;-68
2024/03/08 05:10:02;;;;;;;48.90;22.75;;;;;;;-0.54;100.00;101235.75;5006004;28;20160;-68
2024/03/08 05:12:27;;;;;;;45.88;21.75;;;;;;;-0.54;100.00;101235.75;5024075;28;20120;-68
2024/03/08 05:14:53;;;;;;;50.30;23.33;;;;;;;-0.55;100.00;101234.91;5018675;28;21137;-67
2024/03/08 05:17:19;;;;;;;48.78;22.80;;;;;;;-0.56;100.00;101233.28;5005183;28;20033;-68
2024/03/08 05:19:44;;;;;;;50.38;23.88;;;;;;;-0.57;100.00;101226.50;5025487;28;20038;-69
2024/03/08 05:22:10;;;;;;;55.03;22.42;;;;;;;-0.57;100.00;101233.34;5021858;28;20037;-69
2024/03/08 05:24:36;;;;;;;48.05;22.88;;;;;;;-0.60;100.00;101224.94;5020032;28;20476;-68
2024/03/08 05:27:02;;;;;;;56.05;24.30;;;;;;;-0.62;100.00;101220.84;5023983;28;20029;-68
2024/03/08 05:29:28;;;;;;;51.65;23.70;;;;;;;-0.65;100.00;101237.06;5026090;28;20071;-69
2024/03/08 05:31:54;;;;;;;54.05;23.67;;;;;;;-0.65;100.00;101228.59;5023676;28;20399;-69
2024/03/08 05:34:21;;;;;;;47.22;22.52;;;;;;;-0.69;100.00;101225.38;5022995;28;20087;-68
2024/03/08 05:36:49;;;;;;;51.50;22.83;;;;;;;-0.73;100.00;101223.88;5019616;28;20042;-67
2024/03/08 05:39:15;;;;;;;53.92;24.73;;;;;;;-0.74;100.00;101222.22;5020815;28;20041;-68
2024/03/08 05:41:41;;;;;;;54.95;24.67;;;;;;;-0.77;100.00;101221.53;5019818;28;20048;-69
2024/03/08 05:44:08;;;;;;;51.50;23.90;;;;;;;-0.81;100.00;101215.75;5021432;28;20033;-69
2024/03/08 05:46:34;;;;;;;50.53;23.75;;;;;;;-0.84;100.00;101209.09;5018310;28;20099;-68
2024/03/08 05:49:00;;;;;;;49.58;22.90;;;;;;;-0.85;100.00;101212.56;5018972;28;20049;-68
2024/03/08 05:51:28;;;;;;;49.53;22.83;;;;;;;-0.86;100.00;101210.91;5023707;28;20040;-67
2024/03/08 05:53:56;;;;;;;49.00;22.73;;;;;;;-0.86;100.00;101207.53;5005397;28;20088;-68
2024/03/08 05:56:25;;;;;;;57.95;25.85;;;;;;;-0.85;100.00;101202.38;5024785;28;20044;-69
2024/03/08 05:58:50;;;;;;;52.80;23.35;;;;;;;-0.85;100.00;101196.44;5022573;28;20112;-68
2024/03/08 06:01:16;;;;;;;60.90;25.92;;;;;;;-0.84;100.00;101200.66;5022984;28;20135;-68
2024/03/08 06:03:44;;;;;;;49.75;23.02;;;;;;;-0.87;100.00;101203.31;5022978;28;20191;-68
2024/03/08 06:06:12;;;;;;;50.67;23.48;;;;;;;-0.85;100.00;101201.53;5025479;28;20037;-68
2024/03/08 06:08:38;;;;;;;51.53;24.58;;;;;;;-0.85;100.00;101194.75;5025893;28;20484;-69
2024/03/08 06:11:04;;;;;;;51.80;24.60;;;;;;;-0.89;100.00;101197.47;5027685;28;20083;-68
2024/03/08 06:13:31;;;;;;;55.67;25.23;;;;;;;-0.90;100.00;101190.75;5016784;28;20044;-68
2024/03/08 06:15:56;;;;;;;55.13;24.33;;;;;;;-0.90;100.00;101190.75;5030875;28;20061;-68
2024/03/08 06:18:22;;;;;;;56.08;23.58;;;;;;;-0.88;100.00;101194.88;5034170;28;20040;-68
2024/03/08 06:20:47;;;;;;;53.33;25.35;;;;;;;-0.88;100.00;101187.22;5028843;28;20038;-69
2024/03/08 06:23:17;;;;;;;54.15;23.83;;;;;;;-0.86;100.00;101192.25;5040702;28;20052;-68
2024/03/08 06:25:46;;;;;;;48.72;23.50;;;;;;;-0.85;100.00;101193.88;5027277;28;20523;-68
2024/03/08 06:28:11;;;;;;;54.88;24.05;;;;;;;-0.86;100.00;101192.25;5007485;28;20038;-68
2024/03/08 06:30:37;;;;;;;60.60;25.95;;;;;;;-0.84;100.00;101190.47;5019616;28;20095;-68
2024/03/08 06:33:02;;;;;;;59.80;25.73;;;;;;;-0.75;100.00;101187.47;5023658;28;20569;-68
2024/03/08 06:35:28;;;;;;;60.10;24.90;;;;;;;-0.69;100.00;101192.28;5021302;28;20115;-68
2024/03/08 06:37:53;;;;;;;63.60;25.63;;;;;;;-0.60;100.00;101185.91;5005375;28;20052;-68
2024/03/08 06:40:19;;;;;;;55.75;24.95;;;;;;;-0.58;100.00;101186.66;5019070;28;20046;-68
2024/03/08 06:42:45;;;;;;;50.97;24.55;;;;;;;-0.48;100.00;101184.47;5024994;28;20217;-68
2024/03/08 06:45:12;;;;;;;57.75;25.15;;;;;;;-0.45;100.00;101186.91;5022177;28;20038;-68
2024/03/08 06:47:37;;;;;;;58.97;25.30;;;;;;;-0.45;100.00;101181.81;5023737;28;20079;-68
2024/03/08 06:50:04;;;;;;;60.53;27.25;;;;;;;-0.44;100.00;101176.59;5020596;28;20037;-68
2024/03/08 06:52:29;;;;;;;60.33;27.38;;;;;;;-0.38;100.00;101183.13;5039638;28;20033;-68
2024/03/08 06:54:57;;;;;;;60.45;25.73;;;;;;;-0.31;100.00;101178.56;5020187;28;20037;-68
2024/03/08 06:57:22;;;;;;;66.65;26.13;;;;;;;-0.28;100.00;101179.22;5025584;28;20076;-68
2024/03/08 06:59:48;;;;;;;53.58;24.55;;;;;;;-0.20;100.00;101176.28;5023000;28;20045;-67
2024/03/08 07:02:14;;;;;;;72.47;27.13;;;;;;;-0.03;100.00;101178.81;5019780;28;20111;-68
2024/03/08 07:04:40;;;;;;;64.38;27.23;;;;;;;0.33;100.00;101177.81;5020975;28;21527;-68
2024/03/08 07:07:09;;;;;;;59.38;26.60;;;;;;;0.71;100.00;101172.38;5021862;28;20034;-67
2024/03/08 07:09:38;;;;;;;54.28;25.25;;;;;;;1.08;100.00;101170.38;5020531;28;20407;-69
2024/03/08 07:12:04;;;;;;;62.00;26.08;;;;;;;1.53;98.91;101167.88;5019434;28;20042;-68
2024/03/08 07:14:30;;;;;;;59.65;25.23;;;;;;;1.88;95.86;101165.78;5019593;28;20034;-68
2024/03/08 07:16:56;;;;;;;48.40;24.70;;;;;;;2.36;92.26;101167.25;5011904;28;20079;-68
2024/03/08 07:19:21;;;;;;;49.42;22.98;;;;;;;2.70;89.32;101166.78;5016613;28;20496;-68
2024/03/08 07:21:47;;;;;;;68.82;25.52;;;;;;;3.06;86.40;101164.56;5023978;28;20380;-68
2024/03/08 07:26:49;;;;;;;55.90;24.63;;;;;;;3.88;80.57;101160.03;5020243;28;20460;-68
2024/03/08 07:29:17;;;;;;;50.53;22.92;;;;;;;4.28;78.23;101157.31;5023259;28;20042;-68
2024/03/08 07:32:01;;;;;;;49.83;23.02;;;;;;;4.59;75.79;101153.41;5025188;28;20033;-68
2024/03/08 07:34:29;;;;;;;45.33;21.58;;;;;;;4.86;73.81;101145.50;5022074;28;20116;-69
2024/03/08 07:36:56;;;;;;;48.25;21.80;;;;;;;5.03;72.85;101141.72;5022761;28;20060;-68
2024/03/08 07:39:23;;;;;;;62.58;27.27;;;;;;;5.19;71.39;101141.41;5021636;28;20156;-68
2024/03/08 07:41:52;;;;;;;42.60;20.20;;;;;;;5.70;70.24;101144.53;5021722;28;20460;-68
2024/03/08 07:44:18;;;;;;;52.67;22.58;;;;;;;5.87;68.96;101138.94;5029780;28;21104;-68
2024/03/08 07:46:43;;;;;;;44.10;21.92;;;;;;;6.14;67.33;101138.63;5021169;28;20036;-68
2024/03/08 07:49:10;;;;;;;47.55;21.83;;;;;;;6.22;66.96;101130.28;5022543;28;20087;-68
2024/03/08 07:51:37;;;;;;;45.47;21.77;;;;;;;6.31;66.42;101126.16;5023391;28;20048;-68
2024/03/08 07:54:04;;;;;;;42.78;20.67;;;;;;;6.56;65.65;101130.22;5022643;28;20554;-68
2024/03/08 07:56:30;;;;;;;46.38;20.75;;;;;;;6.41;65.45;101121.94;5022103;28;20037;-68
2024/03/08 07:58:56;;;;;;;42.00;19.83;;;;;;;6.52;65.66;101121.09;5002652;28;20080;-68
2024/03/08 08:01:21;;;;;;;47.30;22.67;;;;;;;6.89;64.69;101116.38;5008813;28;20120;-69
2024/03/08 08:03:48;;;;;;;39.20;19.73;;;;;;;6.95;63.65;101109.91;5020888;28;20041;-69
2024/03/08 08:06:15;;;;;;;42.75;19.70;;;;;;;7.29;62.90;101104.56;5021296;28;20029;-68
2024/03/08 08:08:44;;;;;;;47.65;20.65;;;;;;;6.95;63.26;101103.00;5003903;28;20029;-69
2024/03/08 08:11:15;;;;;;;45.15;21.15;;;;;;;6.76;64.07;101098.53;5019792;28;20034;-68
2024/03/08 08:13:42;;;;;;;44.08;20.85;;;;;;;6.67;63.99;101101.00;5018218;28;20068;-69
2024/03/08 08:16:07;;;;;;;37.28;18.98;;;;;;;6.80;63.35;101096.53;5004824;28;20140;-68
2024/03/08 08:18:33;;;;;;;38.13;19.52;;;;;;;6.69;64.08;101094.00;5017629;28;20042;-69
2024/03/08 08:21:01;;;;;;;43.45;19.23;;;;;;;6.88;63.13;101088.16;5019921;28;20037;-68
2024/03/08 08:23:27;;;;;;;42.50;19.67;;;;;;;6.98;63.89;101079.53;5013703;28;20057;-68
2024/03/08 08:25:52;;;;;;;42.97;20.30;;;;;;;7.37;62.26;101079.75;5016858;28;20571;-68
2024/03/08 08:28:18;;;;;;;45.67;20.45;;;;;;;7.64;61.17;101065.47;5019206;28;20049;-68
2024/03/08 08:30:48;;;;;;;41.00;19.75;;;;;;;7.89;60.68;101069.38;5003530;28;20060;-69
2024/03/08 08:33:14;;;;;;;38.05;18.48;;;;;;;8.05;60.54;101058.53;5002245;28;20041;-69
2024/03/08 08:35:40;;;;;;;44.88;18.00;;;;;;;8.37;59.61;101052.31;5019597;28;20408;-68
2024/03/08 08:38:07;;;;;;;42.70;18.70;;;;;;;7.96;59.33;101054.97;5016869;28;20116;-69
2024/03/08 08:40:33;;;;;;;36.42;18.88;;;;;;;8.13;59.37;101048.34;5019267;28;20049;-69
2024/03/08 08:42:59;;;;;;;36.70;18.67;;;;;;;8.23;58.77;101052.72;5019706;28;20709;-68
2024/03/08 08:45:25;;;;;;;33.78;17.92;;;;;;;8.39;58.58;101043.47;5015259;28;20044;-69
2024/03/08 08:47:52;;;;;;;36.90;18.58;;;;;;;7.96;58.69;101044.66;5004833;28;20034;-69
2024/03/08 08:50:23;;;;;;;42.53;17.73;;;;;;;7.93;59.01;101044.94;5031602;28;20034;-69
2024/03/08 08:52:49;;;;;;;39.22;17.77;;;;;;;8.14;58.58;101039.66;5005412;28;20037;-69
2024/03/08 08:55:14;;;;;;;39.83;18.45;;;;;;;7.93;58.44;101034.59;5021561;28;20451;-68
2024/03/08 08:57:43;;;;;;;35.95;17.40;;;;;;;7.88;59.27;101039.34;5021760;28;20021;-69
2024/03/08 09:00:14;;;;;;;35.00;17.25;;;;;;;7.77;59.70;101034.28;5021989;28;20056;-69
2024/03/08 09:02:40;;;;;;;31.85;16.38;;;;;;;8.35;59.20;101021.44;5019004;28;20034;-69
2024/03/08 09:05:07;;;;;;;38.33;17.33;;;;;;;8.74;58.21;101021.47;5016367;28;20531;-69
2024/03/08 09:07:33;;;;;;;34.60;17.08;;;;;;;8.98;57.13;101017.59;5015812;28;20037;-69
2024/03/08 09:10:00;;;;;;;34.92;17.27;;;;;;;8.69;57.04;101021.06;5005978;28;20501;-69
2024/03/08 09:12:26;;;;;;;33.55;16.90;;;;;;;8.38;56.61;101023.78;5016145;28;20029;-69
2024/03/08 09:14:52;;;;;;;36.08;16.95;;;;;;;8.46;56.83;101017.16;5025899;28;20522;-69
2024/03/08 09:17:20;;;;;;;31.65;16.38;;;;;;;8.56;57.24;101007.59;5024052;28;20712;-69
2024/03/08 09:19:47;;;;;;;28.40;15.60;;;;;;;8.40;57.59;101008.13;5025822;28;20037;-69
2024/03/08 09:22:13;;;;;;;32.22;17.00;;;;;;;8.27;57.70;101016.16;5022797;28;20084;-69
2024/03/08 09:24:38;;;;;;;33.63;16.83;;;;;;;8.33;57.61;101017.38;5022554;28;20049;-69
2024/03/08 09:27:04;;;;;;;30.08;16.83;;;;;;;8.10;57.77;100998.72;5025009;28;20076;-68
2024/03/08 09:29:30;;;;;;;32.47;15.77;;;;;;;8.28;57.05;100996.28;5023483;28;20392;-69
2024/03/08 09:31:55;;;;;;;31.15;15.77;;;;;;;8.62;57.57;100996.69;5020810;28;20045;-68
2024/03/08 09:34:21;;;;;;;33.72;16.00;;;;;;;8.67;56.12;100991.13;5008474;28;20029;-69
2024/03/08 09:36:46;;;;;;;32.22;16.10;;;;;;;8.55;57.07;100990.44;5023956;28;20504;-68
2024/03/08 09:39:16;;;;;;;29.95;15.02;;;;;;;8.56;56.54;100994.69;5023769;28;20164;-69
2024/03/08 09:41:47;;;;;;;30.92;15.15;;;;;;;8.36;57.15;100988.66;5025278;28;20034;-69
2024/03/08 09:44:14;;;;;;;32.47;15.45;;;;;;;8.50;56.93;100984.91;5022133;28;20123;-69
2024/03/08 09:46:40;;;;;;;36.33;15.60;;;;;;;8.36;57.15;100973.16;5023485;28;20065;-69
2024/03/08 09:49:06;;;;;;;34.40;15.27;;;;;;;8.51;57.85;100973.59;5024545;28;20071;-69
2024/03/08 09:51:35;;;;;;;32.63;15.68;;;;;;;8.30;56.19;100969.34;5025366;28;20025;-69
2024/03/08 09:54:04;;;;;;;29.02;14.82;;;;;;;8.37;57.81;100957.53;5022896;28;20022;-69
2024/03/08 09:56:32;;;;;;;30.42;15.52;;;;;;;8.43;57.74;100955.38;5021836;28;20033;-69
2024/03/08 10:01:30;;;;;;;30.08;16.20;;;;;;;8.43;57.42;100948.44;5026048;28;20404;-70
2024/03/08 10:03:57;;;;;;;27.85;14.95;;;;;;;8.32;56.00;100941.63;5024664;28;20064;-69
2024/03/08 10:06:24;;;;;;;28.00;14.75;;;;;;;8.36;57.89;100937.81;5015996;28;20045;-69
2024/03/08 10:08:51;;;;;;;28.52;15.25;;;;;;;8.21;57.23;100943.53;5009784;28;20091;-69
2024/03/08 10:11:17;;;;;;;29.30;15.32;;;;;;;8.19;56.83;100934.16;5025378;28;20582;-69
2024/03/08 10:13:46;;;;;;;29.42;14.38;;;;;;;8.18;57.13;100935.09;5033681;28;20034;-69
2024/03/08 10:16:12;;;;;;;29.77;14.25;;;;;;;8.26;56.68;100929.25;5019884;28;20492;-69
2024/03/08 10:18:38;;;;;;;28.73;14.63;;;;;;;8.39;57.81;100923.81;5007355;28;20392;-69
2024/03/08 10:21:05;;;;;;;35.17;15.98;;;;;;;8.44;56.71;100933.75;5007006;28;20052;-69
2024/03/08 10:23:33;;;;;;;27.27;14.60;;;;;;;8.40;56.76;100920.28;5027239;28;20654;-68
2024/03/08 10:26:15;;;;;;;32.35;13.77;;;;;;;8.19;56.11;100916.09;5023734;28;20103;-69
2024/03/08 10:28:52;;;;;;;29.30;15.18;;;;;;;8.21;56.63;100918.50;5023155;28;20048;-70
2024/03/08 10:31:19;;;;;;;28.55;14.15;;;;;;;8.22;56.01;100914.97;5026404;28;20048;-69
2024/03/08 10:33:46;;;;;;;33.30;15.77;;;;;;;8.28;57.70;100898.94;5024440;28;20033;-68
2024/03/08 10:36:13;;;;;;;27.55;14.82;;;;;;;8.38;56.42;100894.56;5026894;28;20052;-69
2024/03/08 10:38:41;;;;;;;24.60;13.00;;;;;;;8.54;55.81;100898.38;5027526;28;20056;-69
2024/03/08 10:41:11;;;;;;;27.25;13.98;;;;;;;8.58;55.32;100895.34;5026708;28;20045;-68
2024/03/08 10:44:11;;;;;;;26.95;13.38;;;;;;;8.51;55.34;100883.13;5024553;28;20044;-69
2024/03/08 10:47:05;;;;;;;30.92;13.05;;;;;;;8.63;55.34;100881.22;5018553;28;20049;-69
2024/03/08 10:49:42;;;;;;;28.17;13.30;;;;;;;8.86;55.63;100885.06;5044800;28;20586;-70
2024/03/08 10:52:10;;;;;;;25.52;12.95;;;;;;;9.03;55.07;100872.34;5012537;28;20491;-69
2024/03/08 10:54:40;;;;;;;24.10;12.98;;;;;;;8.85;54.17;100877.44;5006930;28;20120;-69
2024/03/08 10:57:06;;;;;;;24.90;11.32;;;;;;;8.79;53.66;100865.09;5022458;28;20044;-68
2024/03/08 10:59:33;;;;;;;25.90;12.18;;;;;;;8.81;53.74;100868.34;5022205;28;20033;-69
2024/03/08 11:01:59;;;;;;;25.08;12.02;;;;;;;8.72;52.88;100854.50;5024827;28;20397;-69
2024/03/08 11:04:25;;;;;;;24.45;13.38;;;;;;;8.90;55.07;100849.38;5025468;28;20034;-69
2024/03/08 11:06:54;;;;;;;29.80;12.55;;;;;;;8.88;54.06;100852.09;5023437;28;20529;-69
2024/03/08 11:09:29;;;;;;;25.25;12.88;;;;;;;8.98;53.91;100856.41;5024554;28;20041;-69
2024/03/08 11:12:16;;;;;;;24.13;11.60;;;;;;;8.97;53.93;100845.28;5023264;28;20511;-68
2024/03/08 11:14:44;;;;;;;25.02;12.93;;;;;;;8.96;53.07;100841.84;5022691;28;20026;-69
2024/03/08 11:17:09;;;;;;;21.98;11.43;;;;;;;9.12;54.42;100840.44;5024023;28;20041;-68
2024/03/08 11:19:35;;;;;;;23.63;11.70;;;;;;;9.12;52.92;100840.44;5022376;28;20387;-68